sensor_id;sensor_type;location;lat;lon;timestamp;pressure;altitude;pressure_sealevel;temperature;humidity
50282;BME280;36176;51.506;10.272;2023-01-28T00:00:51;58343.00;;;-145.31;100.00
50282;BME280;36176;51.506;10.272;2023-01-28T00:03:18;58343.00;;;-145.31;100.00
50282;BME280;36176;51.506;10.272;2023-01-28T00:05:45;58343.00;;;-145.31;100.00
50282;BME280;36176;51.506;10.272;2023-01-28T00:08:12;58343.00;;;-145.31;100.00
50282;BME280;36176;51.506;10.272;2023-01-28T00:10:40;58343.00;;;-145.31;100.00
50282;BME280;36176;51.506;10.272;2023-01-28T00:13:11;58343.00;;;-145.31;100.00
50282;BME280;36176;51.506;10.272;2023-01-28T00:15:40;58343.00;;;-145.31;100.00
50282;BME280;36176;51.506;10.272;2023-01-28T00:18:07;58343.00;;;-145.31;100.00
50282;BME280;36176;51.506;10.272;2023-01-28T00:20:34;58343.00;;;-145.31;100.00
50282;BME280;36176;51.506;10.272;2023-01-28T00:23:02;58343.00;;;-145.31;100.00
50282;BME280;36176;51.506;10.272;2023-01-28T00:25:30;58343.00;;;-145.31;100.00
50282;BME280;36176;51.506;10.272;2023-01-28T00:27:57;58343.00;;;-145.31;100.00
50282;BME280;36176;51.506;10.272;2023-01-28T00:30:24;58343.00;;;-145.31;100.00
50282;BME280;36176;51.506;10.272;2023-01-28T00:32:52;58343.00;;;-145.31;100.00
50282;BME280;36176;51.506;10.272;2023-01-28T00:35:19;58343.00;;;-145.31;100.00
50282;BME280;36176;51.506;10.272;2023-01-28T00:37:46;58343.00;;;-145.31;100.00
50282;BME280;36176;51.506;10.272;2023-01-28T00:40:13;58343.00;;;-145.31;100.00
50282;BME280;36176;51.506;10.272;2023-01-28T00:42:40;58343.00;;;-145.31;100.00
50282;BME280;36176;51.506;10.272;2023-01-28T00:45:08;58343.00;;;-145.31;100.00
50282;BME280;36176;51.506;10.272;2023-01-28T00:47:35;58343.00;;;-145.31;100.00
50282;BME280;36176;51.506;10.272;2023-01-28T00:50:02;58343.00;;;-145.31;100.00
50282;BME280;36176;51.506;10.272;2023-01-28T00:52:30;58343.00;;;-145.31;100.00
50282;BME280;36176;51.506;10.272;2023-01-28T00:54:57;58343.00;;;-145.31;100.00
50282;BME280;36176;51.506;10.272;2023-01-28T00:57:24;58343.00;;;-145.31;100.00
50282;BME280;36176;51.506;10.272;2023-01-28T00:59:51;58343.00;;;-145.31;100.00
50282;BME280;36176;51.506;10.272;2023-01-28T01:02:18;58343.00;;;-145.31;100.00
50282;BME280;36176;51.506;10.272;2023-01-28T01:04:45;58343.00;;;-145.31;100.00
50282;BME280;36176;51.506;10.272;2023-01-28T01:07:21;58343.00;;;-145.31;100.00
50282;BME280;36176;51.506;10.272;2023-01-28T01:09:49;58343.00;;;-145.31;100.00
50282;BME280;36176;51.506;10.272;2023-01-28T01:12:16;58343.00;;;-145.31;100.00
50282;BME280;36176;51.506;10.272;2023-01-28T01:14:43;58343.00;;;-145.31;100.00
50282;BME280;36176;51.506;10.272;2023-01-28T01:17:10;58343.00;;;-145.31;100.00
50282;BME280;36176;51.506;10.272;2023-01-28T01:19:37;58343.00;;;-145.31;100.00
50282;BME280;36176;51.506;10.272;2023-01-28T01:22:04;58343.00;;;-145.31;100.00
50282;BME280;36176;51.506;10.272;2023-01-28T01:24:31;58343.00;;;-145.31;100.00
50282;BME280;36176;51.506;10.272;2023-01-28T01:26:59;58343.00;;;-145.31;100.00
50282;BME280;36176;51.506;10.272;2023-01-28T01:29:26;58343.00;;;-145.31;100.00
50282;BME280;36176;51.506;10.272;2023-01-28T01:31:53;58343.00;;;-145.31;100.00
50282;BME280;36176;51.506;10.272;2023-01-28T01:34:21;58343.00;;;-145.31;100.00
50282;BME280;36176;51.506;10.272;2023-01-28T01:36:48;58343.00;;;-145.31;100.00
50282;BME280;36176;51.506;10.272;2023-01-28T01:39:15;58343.00;;;-145.31;100.00
50282;BME280;36176;51.506;10.272;2023-01-28T01:41:42;58343.00;;;-145.31;100.00
50282;BME280;36176;51.506;10.272;2023-01-28T01:47:15;58343.00;;;-145.31;100.00
50282;BME280;36176;51.506;10.272;2023-01-28T01:49:43;58343.00;;;-145.31;100.00
50282;BME280;36176;51.506;10.272;2023-01-28T01:52:14;58343.00;;;-145.31;100.00
50282;BME280;36176;51.506;10.272;2023-01-28T01:54:46;58343.00;;;-145.31;100.00
50282;BME280;36176;51.506;10.272;2023-01-28T01:57:16;58343.00;;;-145.31;100.00
50282;BME280;36176;51.506;10.272;2023-01-28T01:59:47;58343.00;;;-145.31;100.00
50282;BME280;36176;51.506;10.272;2023-01-28T02:02:14;58343.00;;;-145.31;100.00
50282;BME280;36176;51.506;10.272;2023-01-28T02:04:43;58343.00;;;-145.31;100.00
50282;BME280;36176;51.506;10.272;2023-01-28T02:07:12;58343.00;;;-145.31;100.00
50282;BME280;36176;51.506;10.272;2023-01-28T02:09:40;58343.00;;;-145.31;100.00
50282;BME280;36176;51.506;10.272;2023-01-28T02:12:10;58343.00;;;-145.31;100.00
50282;BME280;36176;51.506;10.272;2023-01-28T02:15:10;58343.00;;;-145.31;100.00
50282;BME280;36176;51.506;10.272;2023-01-28T02:17:38;58343.00;;;-145.31;100.00
50282;BME280;36176;51.506;10.272;2023-01-28T02:20:19;58343.00;;;-145.31;100.00
50282;BME280;36176;51.506;10.272;2023-01-28T02:23:16;58343.00;;;-145.31;100.00
50282;BME280;36176;51.506;10.272;2023-01-28T02:25:51;58343.00;;;-145.31;100.00
50282;BME280;36176;51.506;10.272;2023-01-28T02:31:15;58343.00;;;-145.31;100.00
50282;BME280;36176;51.506;10.272;2023-01-28T02:33:59;58343.00;;;-145.31;100.00
50282;BME280;36176;51.506;10.272;2023-01-28T02:39:16;58343.00;;;-145.31;100.00
50282;BME280;36176;51.506;10.272;2023-01-28T02:42:03;58343.00;;;-145.31;100.00
50282;BME280;36176;51.506;10.272;2023-01-28T02:44:32;58343.00;;;-145.31;100.00
50282;BME280;36176;51.506;10.272;2023-01-28T02:46:59;58343.00;;;-145.31;100.00
50282;BME280;36176;51.506;10.272;2023-01-28T02:49:51;58343.00;;;-145.31;100.00
50282;BME280;36176;51.506;10.272;2023-01-28T02:58:18;58343.00;;;-145.31;100.00
50282;BME280;36176;51.506;10.272;2023-01-28T03:01:03;58343.00;;;-145.31;100.00
50282;BME280;36176;51.506;10.272;2023-01-28T03:03:46;58343.00;;;-145.31;100.00
50282;BME280;36176;51.506;10.272;2023-01-28T03:06:19;58343.00;;;-145.31;100.00
50282;BME280;36176;51.506;10.272;2023-01-28T03:08:52;58343.00;;;-145.31;100.00
50282;BME280;36176;51.506;10.272;2023-01-28T03:14:50;58343.00;;;-145.31;100.00
50282;BME280;36176;51.506;10.272;2023-01-28T03:17:44;58343.00;;;-145.31;100.00
50282;BME280;36176;51.506;10.272;2023-01-28T03:20:37;58343.00;;;-145.31;100.00
50282;BME280;36176;51.506;10.272;2023-01-28T03:26:46;58343.00;;;-145.31;100.00
50282;BME280;36176;51.506;10.272;2023-01-28T03:29:35;58343.00;;;-145.31;100.00
50282;BME280;36176;51.506;10.272;2023-01-28T03:32:22;58343.00;;;-145.31;100.00
50282;BME280;36176;51.506;10.272;2023-01-28T03:35:09;58343.00;;;-145.31;100.00
50282;BME280;36176;51.506;10.272;2023-01-28T03:37:55;58343.00;;;-145.31;100.00
50282;BME280;36176;51.506;10.272;2023-01-28T03:40:26;58343.00;;;-145.31;100.00
50282;BME280;36176;51.506;10.272;2023-01-28T03:42:53;58343.00;;;-145.31;100.00
50282;BME280;36176;51.506;10.272;2023-01-28T03:45:22;58343.00;;;-145.31;100.00
50282;BME280;36176;51.506;10.272;2023-01-28T03:47:49;58343.00;;;-145.31;100.00
50282;BME280;36176;51.506;10.272;2023-01-28T03:50:16;58343.00;;;-145.31;100.00
50282;BME280;36176;51.506;10.272;2023-01-28T03:52:43;58343.00;;;-145.31;100.00
50282;BME280;36176;51.506;10.272;2023-01-28T03:55:10;58343.00;;;-145.31;100.00
50282;BME280;36176;51.506;10.272;2023-01-28T03:57:41;58343.00;;;-145.31;100.00
50282;BME280;36176;51.506;10.272;2023-01-28T04:00:10;58343.00;;;-145.31;100.00
50282;BME280;36176;51.506;10.272;2023-01-28T04:02:37;58343.00;;;-145.31;100.00
50282;BME280;36176;51.506;10.272;2023-01-28T04:05:39;100566.91;;;-0.17;87.66
50282;BME280;36176;51.506;10.272;2023-01-28T04:08:06;100571.25;;;-0.17;87.63
50282;BME280;36176;51.506;10.272;2023-01-28T04:10:33;100564.38;;;-0.14;87.87
50282;BME280;36176;51.506;10.272;2023-01-28T04:13:00;100568.72;;;-0.13;87.76
50282;BME280;36176;51.506;10.272;2023-01-28T04:15:27;100571.38;;;-0.11;87.99
50282;BME280;36176;51.506;10.272;2023-01-28T04:17:56;100576.56;;;-0.11;87.63
50282;BME280;36176;51.506;10.272;2023-01-28T04:20:23;100569.69;;;-0.06;87.74
50282;BME280;36176;51.506;10.272;2023-01-28T04:22:50;100581.00;;;-0.03;87.44
50282;BME280;36176;51.506;10.272;2023-01-28T04:25:17;100566.28;;;-0.01;87.05
50282;BME280;36176;51.506;10.272;2023-01-28T04:27:43;100573.25;;;0.01;86.68
50282;BME280;36176;51.506;10.272;2023-01-28T04:30:11;100575.84;;;-0.01;87.38
50282;BME280;36176;51.506;10.272;2023-01-28T04:32:38;100568.91;;;0.01;87.04
50282;BME280;36176;51.506;10.272;2023-01-28T04:35:05;100563.75;;;0.06;86.76
50282;BME280;36176;51.506;10.272;2023-01-28T04:37:32;100562.00;;;0.05;86.13
50282;BME280;36176;51.506;10.272;2023-01-28T04:39:59;100563.75;;;0.06;86.04
50282;BME280;36176;51.506;10.272;2023-01-28T04:42:26;100572.44;;;0.06;86.82
50282;BME280;36176;51.506;10.272;2023-01-28T04:44:53;100575.09;;;0.08;86.92
50282;BME280;36176;51.506;10.272;2023-01-28T04:47:20;100576.84;;;0.12;86.59
50282;BME280;36176;51.506;10.272;2023-01-28T04:49:47;100576.88;;;0.13;85.91
50282;BME280;36176;51.506;10.272;2023-01-28T04:52:14;100569.88;;;0.08;85.67
50282;BME280;36176;51.506;10.272;2023-01-28T04:54:41;100574.19;;;0.06;85.96
50282;BME280;36176;51.506;10.272;2023-01-28T04:57:08;100573.34;;;0.08;85.96
50282;BME280;36176;51.506;10.272;2023-01-28T04:59:35;100582.94;;;0.11;86.54
50282;BME280;36176;51.506;10.272;2023-01-28T05:02:02;100578.59;;;0.10;85.83
50282;BME280;36176;51.506;10.272;2023-01-28T05:04:29;100583.69;;;0.01;86.28
50282;BME280;36176;51.506;10.272;2023-01-28T05:06:56;100583.66;;;-0.01;86.50
50282;BME280;36176;51.506;10.272;2023-01-28T05:09:24;100584.56;;;0.01;86.21
50282;BME280;36176;51.506;10.272;2023-01-28T05:11:53;100586.31;;;0.04;86.06
50282;BME280;36176;51.506;10.272;2023-01-28T05:14:20;100589.81;;;0.06;86.29
50282;BME280;36176;51.506;10.272;2023-01-28T05:16:49;100588.97;;;0.05;86.07
50282;BME280;36176;51.506;10.272;2023-01-28T05:19:16;100594.06;;;-0.01;86.44
50282;BME280;36176;51.506;10.272;2023-01-28T05:21:44;100587.91;;;-0.09;86.58
50282;BME280;36176;51.506;10.272;2023-01-28T05:24:11;100586.16;;;-0.09;86.60
50282;BME280;36176;51.506;10.272;2023-01-28T05:26:38;100590.47;;;-0.11;86.92
50282;BME280;36176;51.506;10.272;2023-01-28T05:29:06;100590.44;;;-0.12;87.23
50282;BME280;36176;51.506;10.272;2023-01-28T05:31:33;100595.66;;;-0.12;86.71
50282;BME280;36176;51.506;10.272;2023-01-28T05:34:00;100597.44;;;-0.08;86.75
50282;BME280;36176;51.506;10.272;2023-01-28T05:36:27;100600.13;;;-0.04;86.78
50282;BME280;36176;51.506;10.272;2023-01-28T05:38:54;100600.09;;;-0.05;87.08
50282;BME280;36176;51.506;10.272;2023-01-28T05:41:21;100596.69;;;-0.01;86.76
50282;BME280;36176;51.506;10.272;2023-01-28T05:43:47;100599.38;;;0.05;86.51
50282;BME280;36176;51.506;10.272;2023-01-28T05:46:15;100596.72;;;0.01;86.48
50282;BME280;36176;51.506;10.272;2023-01-28T05:48:42;100601.88;;;-0.01;86.57
50282;BME280;36176;51.506;10.272;2023-01-28T05:51:08;100596.72;;;0.01;86.85
50282;BME280;36176;51.506;10.272;2023-01-28T05:53:35;100598.47;;;0.05;86.09
50282;BME280;36176;51.506;10.272;2023-01-28T05:56:02;100597.53;;;-0.01;86.78
50282;BME280;36176;51.506;10.272;2023-01-28T05:58:29;100603.53;;;-0.08;86.70
50282;BME280;36176;51.506;10.272;2023-01-28T06:00:57;100600.03;;;-0.10;86.92
50282;BME280;36176;51.506;10.272;2023-01-28T06:03:24;100599.97;;;-0.13;87.21
50282;BME280;36176;51.506;10.272;2023-01-28T06:05:54;100607.84;;;-0.10;87.25
50282;BME280;36176;51.506;10.272;2023-01-28T06:08:21;100612.28;;;-0.03;86.75
50282;BME280;36176;51.506;10.272;2023-01-28T06:10:48;100610.59;;;0.01;86.52
50282;BME280;36176;51.506;10.272;2023-01-28T06:13:15;100614.94;;;0.02;86.39
50282;BME280;36176;51.506;10.272;2023-01-28T06:15:42;100616.72;;;0.05;86.50
50282;BME280;36176;51.506;10.272;2023-01-28T06:18:09;100615.88;;;0.06;86.42
50282;BME280;36176;51.506;10.272;2023-01-28T06:20:36;100621.97;;;0.06;85.24
50282;BME280;36176;51.506;10.272;2023-01-28T06:23:03;100618.47;;;0.04;85.94
50282;BME280;36176;51.506;10.272;2023-01-28T06:25:30;100617.63;;;0.05;85.92
50282;BME280;36176;51.506;10.272;2023-01-28T06:27:57;100624.56;;;0.06;85.94
50282;BME280;36176;51.506;10.272;2023-01-28T06:30:23;100624.59;;;0.09;85.96
50282;BME280;36176;51.506;10.272;2023-01-28T06:32:54;100629.88;;;0.12;85.77
50282;BME280;36176;51.506;10.272;2023-01-28T06:35:22;100626.38;;;0.12;85.65
50282;BME280;36176;51.506;10.272;2023-01-28T06:37:49;100628.94;;;0.09;85.73
50282;BME280;36176;51.506;10.272;2023-01-28T06:40:17;100634.16;;;0.09;85.89
50282;BME280;36176;51.506;10.272;2023-01-28T06:42:44;100632.47;;;0.11;85.69
50282;BME280;36176;51.506;10.272;2023-01-28T06:45:11;100637.63;;;0.09;85.34
50282;BME280;36176;51.506;10.272;2023-01-28T06:47:38;100634.13;;;0.07;84.77
50282;BME280;36176;51.506;10.272;2023-01-28T06:50:06;100635.88;;;0.05;84.60
50282;BME280;36176;51.506;10.272;2023-01-28T06:52:33;100638.47;;;0.07;84.13
50282;BME280;36176;51.506;10.272;2023-01-28T06:55:00;100638.47;;;0.07;84.26
50282;BME280;36176;51.506;10.272;2023-01-28T06:57:27;100642.81;;;0.06;83.58
50282;BME280;36176;51.506;10.272;2023-01-28T06:59:54;100645.44;;;0.08;83.36
50282;BME280;36176;51.506;10.272;2023-01-28T07:02:21;100641.94;;;0.07;83.18
50282;BME280;36176;51.506;10.272;2023-01-28T07:04:48;100638.41;;;0.02;82.77
50282;BME280;36176;51.506;10.272;2023-01-28T07:07:15;100638.34;;;-0.03;81.92
50282;BME280;36176;51.506;10.272;2023-01-28T07:09:42;100646.94;;;-0.08;81.68
50282;BME280;36176;51.506;10.272;2023-01-28T07:12:09;100641.66;;;-0.13;81.44
50282;BME280;36176;51.506;10.272;2023-01-28T07:14:36;100636.47;;;-0.14;81.32
50282;BME280;36176;51.506;10.272;2023-01-28T07:17:03;100639.06;;;-0.14;81.30
50282;BME280;36176;51.506;10.272;2023-01-28T07:19:30;100638.13;;;-0.18;80.86
50282;BME280;36176;51.506;10.272;2023-01-28T07:22:06;100638.19;;;-0.13;81.09
50282;BME280;36176;51.506;10.272;2023-01-28T07:24:42;100637.31;;;-0.12;80.29
50282;BME280;36176;51.506;10.272;2023-01-28T07:27:15;100642.59;;;-0.09;80.34
50282;BME280;36176;51.506;10.272;2023-01-28T07:29:52;100643.47;;;-0.09;79.23
50282;BME280;36176;51.506;10.272;2023-01-28T07:32:19;100639.13;;;-0.08;79.77
50282;BME280;36176;51.506;10.272;2023-01-28T07:34:45;100646.16;;;-0.03;79.13
50282;BME280;36176;51.506;10.272;2023-01-28T07:37:13;100645.38;;;0.03;79.46
50282;BME280;36176;51.506;10.272;2023-01-28T07:39:40;100641.06;;;0.05;77.66
50282;BME280;36176;51.506;10.272;2023-01-28T07:42:07;100639.31;;;0.04;77.65
50282;BME280;36176;51.506;10.272;2023-01-28T07:44:35;100645.41;;;0.06;77.84
50282;BME280;36176;51.506;10.272;2023-01-28T07:47:03;100642.00;;;0.12;76.68
50282;BME280;36176;51.506;10.272;2023-01-28T07:49:32;100646.44;;;0.19;76.41
50282;BME280;36176;51.506;10.272;2023-01-28T07:51:59;100638.66;;;0.20;75.92
50282;BME280;36176;51.506;10.272;2023-01-28T07:54:26;100637.00;;;0.24;75.84
50282;BME280;36176;51.506;10.272;2023-01-28T07:56:53;100649.25;;;0.31;76.50
50282;BME280;36176;51.506;10.272;2023-01-28T07:59:21;100638.91;;;0.40;76.28
50282;BME280;36176;51.506;10.272;2023-01-28T08:01:48;100643.38;;;0.49;76.72
50282;BME280;36176;51.506;10.272;2023-01-28T08:04:15;100645.25;;;0.58;76.65
50282;BME280;36176;51.506;10.272;2023-01-28T08:06:42;100641.78;;;0.60;75.55
50282;BME280;36176;51.506;10.272;2023-01-28T08:09:09;100653.19;;;0.69;75.74
50282;BME280;36176;51.506;10.272;2023-01-28T08:11:37;100661.19;;;0.82;76.60
50282;BME280;36176;51.506;10.272;2023-01-28T08:14:04;100662.03;;;0.81;75.01
50282;BME280;36176;51.506;10.272;2023-01-28T08:16:31;100667.22;;;0.78;75.35
50282;BME280;36176;51.506;10.272;2023-01-28T08:18:58;100661.09;;;0.75;74.69
50282;BME280;36176;51.506;10.272;2023-01-28T08:21:25;100660.22;;;0.74;74.89
50282;BME280;36176;51.506;10.272;2023-01-28T08:23:52;100666.31;;;0.75;75.32
50282;BME280;36176;51.506;10.272;2023-01-28T08:26:20;100660.28;;;0.80;74.94
50282;BME280;36176;51.506;10.272;2023-01-28T08:28:47;100669.00;;;0.82;75.00
50282;BME280;36176;51.506;10.272;2023-01-28T08:31:17;100668.97;;;0.81;74.68
50282;BME280;36176;51.506;10.272;2023-01-28T08:33:44;100668.06;;;0.77;74.11
50282;BME280;36176;51.506;10.272;2023-01-28T08:36:11;100674.09;;;0.73;74.60
50282;BME280;36176;51.506;10.272;2023-01-28T08:38:38;100682.00;;;0.78;74.35
50282;BME280;36176;51.506;10.272;2023-01-28T08:41:08;100675.06;;;0.80;74.74
50282;BME280;36176;51.506;10.272;2023-01-28T08:43:35;100682.03;;;0.82;74.51
50282;BME280;36176;51.506;10.272;2023-01-28T08:46:05;100683.75;;;0.80;74.36
50282;BME280;36176;51.506;10.272;2023-01-28T08:48:32;100684.63;;;0.81;74.55
50282;BME280;36176;51.506;10.272;2023-01-28T08:50:59;100683.75;;;0.80;73.91
50282;BME280;36176;51.506;10.272;2023-01-28T08:53:26;100683.78;;;0.82;74.62
50282;BME280;36176;51.506;10.272;2023-01-28T08:55:53;100689.84;;;0.81;73.78
50282;BME280;36176;51.506;10.272;2023-01-28T08:58:21;100697.69;;;0.79;73.37
50282;BME280;36176;51.506;10.272;2023-01-28T09:00:48;100685.47;;;0.77;73.72
50282;BME280;36176;51.506;10.272;2023-01-28T09:03:16;100682.94;;;0.84;73.73
50282;BME280;36176;51.506;10.272;2023-01-28T09:05:44;100693.44;;;0.91;72.86
50282;BME280;36176;51.506;10.272;2023-01-28T09:08:13;100696.16;;;0.98;72.89
50282;BME280;36176;51.506;10.272;2023-01-28T09:10:40;100697.97;;;1.05;73.02
50282;BME280;36176;51.506;10.272;2023-01-28T09:13:13;100694.56;;;1.14;73.39
50282;BME280;36176;51.506;10.272;2023-01-28T09:15:41;100694.59;;;1.17;72.29
50282;BME280;36176;51.506;10.272;2023-01-28T09:18:08;100708.50;;;1.15;71.31
50282;BME280;36176;51.506;10.272;2023-01-28T09:20:36;100716.25;;;1.07;71.27
50282;BME280;36176;51.506;10.272;2023-01-28T09:23:04;100718.75;;;0.98;71.25
50282;BME280;36176;51.506;10.272;2023-01-28T09:25:31;100730.06;;;0.97;71.11
50282;BME280;36176;51.506;10.272;2023-01-28T09:27:58;100740.47;;;0.94;71.01
50282;BME280;36176;51.506;10.272;2023-01-28T09:30:26;100737.06;;;1.02;71.37
50282;BME280;36176;51.506;10.272;2023-01-28T09:32:54;100745.06;;;1.16;71.88
50282;BME280;36176;51.506;10.272;2023-01-28T09:35:21;100746.09;;;1.27;72.04
50282;BME280;36176;51.506;10.272;2023-01-28T09:37:48;100751.44;;;1.40;71.80
50282;BME280;36176;51.506;10.272;2023-01-28T09:40:18;100744.53;;;1.46;71.42
50282;BME280;36176;51.506;10.272;2023-01-28T09:43:00;100749.84;;;1.57;70.87
50282;BME280;36176;51.506;10.272;2023-01-28T09:45:36;100745.50;;;1.58;70.45
50282;BME280;36176;51.506;10.272;2023-01-28T09:48:07;100739.41;;;1.57;69.87
50282;BME280;36176;51.506;10.272;2023-01-28T09:50:41;100735.94;;;1.58;69.17
50282;BME280;36176;51.506;10.272;2023-01-28T09:53:21;100741.09;;;1.52;67.86
50282;BME280;36176;51.506;10.272;2023-01-28T09:55:54;100747.22;;;1.54;68.65
50282;BME280;36176;51.506;10.272;2023-01-28T09:58:22;100747.31;;;1.63;68.66
50282;BME280;36176;51.506;10.272;2023-01-28T10:00:58;100747.44;;;1.76;67.54
50282;BME280;36176;51.506;10.272;2023-01-28T10:03:46;100755.41;;;1.89;68.17
50282;BME280;36176;51.506;10.272;2023-01-28T10:06:39;100748.53;;;2.04;68.74
50282;BME280;36176;51.506;10.272;2023-01-28T10:09:33;100744.25;;;2.15;68.42
50282;BME280;36176;51.506;10.272;2023-01-28T10:12:24;100744.25;;;2.13;65.65
50282;BME280;36176;51.506;10.272;2023-01-28T10:17:35;100762.50;;;2.10;67.70
50282;BME280;36176;51.506;10.272;2023-01-28T10:22:57;100750.16;;;1.91;66.35
50282;BME280;36176;51.506;10.272;2023-01-28T10:25:30;100746.63;;;1.83;65.92
50282;BME280;36176;51.506;10.272;2023-01-28T10:27:59;100749.22;;;1.80;65.37
50282;BME280;36176;51.506;10.272;2023-01-28T10:30:31;100755.38;;;1.88;67.14
50282;BME280;36176;51.506;10.272;2023-01-28T10:33:21;100747.66;;;2.02;66.18
50282;BME280;36176;51.506;10.272;2023-01-28T10:35:49;100745.09;;;2.12;67.19
50282;BME280;36176;51.506;10.272;2023-01-28T10:38:20;100727.72;;;2.19;66.04
50282;BME280;36176;51.506;10.272;2023-01-28T10:40:48;100743.41;;;2.18;66.93
50282;BME280;36176;51.506;10.272;2023-01-28T10:43:20;100738.16;;;2.18;67.35
50282;BME280;36176;51.506;10.272;2023-01-28T10:45:59;100744.28;;;2.17;67.50
50282;BME280;36176;51.506;10.272;2023-01-28T10:48:29;100735.44;;;2.01;64.98
50282;BME280;36176;51.506;10.272;2023-01-28T10:51:00;100731.78;;;1.80;65.64
50282;BME280;36176;51.506;10.272;2023-01-28T10:53:38;100734.25;;;1.65;65.72
50282;BME280;36176;51.506;10.272;2023-01-28T10:56:08;100748.03;;;1.50;65.75
50282;BME280;36176;51.506;10.272;2023-01-28T10:58:49;100748.88;;;1.47;67.09
50282;BME280;36176;51.506;10.272;2023-01-28T11:01:19;100744.63;;;1.54;66.90
50282;BME280;36176;51.506;10.272;2023-01-28T11:03:57;100748.16;;;1.62;66.11
50282;BME280;36176;51.506;10.272;2023-01-28T11:06:26;100746.50;;;1.69;65.70
50282;BME280;36176;51.506;10.272;2023-01-28T11:08:54;100737.81;;;1.75;65.59
50282;BME280;36176;51.506;10.272;2023-01-28T11:11:24;100748.41;;;1.91;66.31
50282;BME280;36176;51.506;10.272;2023-01-28T11:13:53;100741.59;;;2.07;66.21
50282;BME280;36176;51.506;10.272;2023-01-28T11:16:21;100738.09;;;2.04;64.55
50282;BME280;36176;51.506;10.272;2023-01-28T11:18:59;100738.97;;;2.04;64.51
50282;BME280;36176;51.506;10.272;2023-01-28T11:21:29;100744.25;;;2.12;63.46
50282;BME280;36176;51.506;10.272;2023-01-28T11:24:02;100732.13;;;2.23;64.41
50282;BME280;36176;51.506;10.272;2023-01-28T11:26:34;100727.75;;;2.24;63.78
50282;BME280;36176;51.506;10.272;2023-01-28T11:29:03;100720.75;;;2.20;64.12
50282;BME280;36176;51.506;10.272;2023-01-28T11:31:38;100716.44;;;2.25;64.18
50282;BME280;36176;51.506;10.272;2023-01-28T11:34:07;100711.22;;;2.26;63.83
50282;BME280;36176;51.506;10.272;2023-01-28T11:36:34;100715.53;;;2.20;61.40
50282;BME280;36176;51.506;10.272;2023-01-28T11:39:13;100711.13;;;2.12;62.39
50282;BME280;36176;51.506;10.272;2023-01-28T11:41:41;100720.72;;;2.12;62.68
50282;BME280;36176;51.506;10.272;2023-01-28T11:44:29;100717.09;;;1.96;62.35
50282;BME280;36176;51.506;10.272;2023-01-28T11:47:39;100717.91;;;1.87;63.70
50282;BME280;36176;51.506;10.272;2023-01-28T11:50:24;100710.84;;;1.76;63.25
50282;BME280;36176;51.506;10.272;2023-01-28T11:56:02;100703.94;;;1.84;64.89
50282;BME280;36176;51.506;10.272;2023-01-28T12:04:24;100706.56;;;1.82;64.19
50282;BME280;36176;51.506;10.272;2023-01-28T12:18:28;100709.44;;;2.21;63.85
50282;BME280;36176;51.506;10.272;2023-01-28T12:21:05;100711.16;;;2.20;62.94
50282;BME280;36176;51.506;10.272;2023-01-28T12:24:13;100718.97;;;2.12;61.93
50282;BME280;36176;51.506;10.272;2023-01-28T12:35:30;100715.25;;;1.84;60.68
50282;BME280;36176;51.506;10.272;2023-01-28T12:43:42;100703.94;;;1.82;62.54
50282;BME280;36176;51.506;10.272;2023-01-28T12:46:19;100702.22;;;1.87;63.35
50282;BME280;36176;51.506;10.272;2023-01-28T12:49:00;100704.91;;;1.95;62.95
50282;BME280;36176;51.506;10.272;2023-01-28T12:51:35;100697.88;;;1.88;62.35
50282;BME280;36176;51.506;10.272;2023-01-28T12:54:16;100696.94;;;1.78;62.47
50282;BME280;36176;51.506;10.272;2023-01-28T12:56:50;100693.38;;;1.72;62.75
50282;BME280;36176;51.506;10.272;2023-01-28T13:04:53;100698.47;;;1.58;62.73
50282;BME280;36176;51.506;10.272;2023-01-28T13:07:34;100689.81;;;1.59;63.61
50282;BME280;36176;51.506;10.272;2023-01-28T13:12:52;100689.75;;;1.54;62.75
50282;BME280;36176;51.506;10.272;2023-01-28T13:15:21;100679.25;;;1.46;63.34
50282;BME280;36176;51.506;10.272;2023-01-28T13:17:58;100681.03;;;1.55;63.41
50282;BME280;36176;51.506;10.272;2023-01-28T13:20:49;100676.78;;;1.63;63.44
50282;BME280;36176;51.506;10.272;2023-01-28T13:23:24;100680.31;;;1.68;63.25
50282;BME280;36176;51.506;10.272;2023-01-28T13:25:53;100678.59;;;1.70;63.66
50282;BME280;36176;51.506;10.272;2023-01-28T13:28:32;100675.91;;;1.64;61.40
50282;BME280;36176;51.506;10.272;2023-01-28T13:31:02;100669.78;;;1.59;62.12
50282;BME280;36176;51.506;10.272;2023-01-28T13:33:32;100673.16;;;1.49;62.75
50282;BME280;36176;51.506;10.272;2023-01-28T13:36:16;100664.47;;;1.48;63.66
50282;BME280;36176;51.506;10.272;2023-01-28T13:38:44;100672.41;;;1.61;62.78
50282;BME280;36176;51.506;10.272;2023-01-28T13:41:12;100677.75;;;1.78;62.88
50282;BME280;36176;51.506;10.272;2023-01-28T13:43:41;100671.81;;;1.97;61.67
50282;BME280;36176;51.506;10.272;2023-01-28T13:46:25;100676.19;;;2.03;61.91
50282;BME280;36176;51.506;10.272;2023-01-28T13:48:55;100664.88;;;2.05;62.51
50282;BME280;36176;51.506;10.272;2023-01-28T13:51:30;100664.00;;;2.03;62.87
50282;BME280;36176;51.506;10.272;2023-01-28T13:54:01;100661.34;;;1.97;61.89
50282;BME280;36176;51.506;10.272;2023-01-28T13:56:40;100650.75;;;1.76;61.85
50282;BME280;36176;51.506;10.272;2023-01-28T13:59:26;100647.09;;;1.57;63.02
50282;BME280;36176;51.506;10.272;2023-01-28T14:02:26;100651.53;;;1.64;62.98
50282;BME280;36176;51.506;10.272;2023-01-28T14:08:29;100646.13;;;1.45;62.13
50282;BME280;36176;51.506;10.272;2023-01-28T14:19:33;100623.84;;;0.90;63.31
50282;BME280;36176;51.506;10.272;2023-01-28T14:22:06;100618.63;;;0.87;62.96